sensor_id;sensor_type;location;lat;lon;timestamp;pressure;altitude;pressure_sealevel;temperature;humidity
80180;BME280;69505;52.134;5.438;2023-12-07T00:02:23;102234.03;;;-1.94;100.00
80180;BME280;69505;52.134;5.438;2023-12-07T00:04:50;102237.50;;;-1.93;100.00
80180;BME280;69505;52.134;5.438;2023-12-07T00:07:17;102235.81;;;-1.97;100.00
80180;BME280;69505;52.134;5.438;2023-12-07T00:09:43;102235.81;;;-2.07;100.00
80180;BME280;69505;52.134;5.438;2023-12-07T00:12:10;102235.81;;;-2.03;100.00
80180;BME280;69505;52.134;5.438;2023-12-07T00:14:37;102230.59;;;-2.00;100.00
80180;BME280;69505;52.134;5.438;2023-12-07T00:17:03;102231.47;;;-2.09;100.00
80180;BME280;69505;52.134;5.438;2023-12-07T00:19:30;102228.88;;;-2.15;100.00
80180;BME280;69505;52.134;5.438;2023-12-07T00:21:57;102235.81;;;-2.25;100.00
80180;BME280;69505;52.134;5.438;2023-12-07T00:24:23;102233.25;;;-2.34;100.00
80180;BME280;69505;52.134;5.438;2023-12-07T00:26:50;102228.91;;;-2.31;100.00
80180;BME280;69505;52.134;5.438;2023-12-07T00:29:16;102225.41;;;-2.31;100.00
80180;BME280;69505;52.134;5.438;2023-12-07T00:31:43;102223.69;;;-2.26;100.00
80180;BME280;69505;52.134;5.438;2023-12-07T00:34:10;102220.19;;;-2.19;100.00
80180;BME280;69505;52.134;5.438;2023-12-07T00:36:37;102219.31;;;-2.16;100.00
80180;BME280;69505;52.134;5.438;2023-12-07T00:39:06;102225.44;;;-2.22;100.00
80180;BME280;69505;52.134;5.438;2023-12-07T00:41:33;102218.47;;;-2.29;100.00
80180;BME280;69505;52.134;5.438;2023-12-07T00:43:59;102218.50;;;-2.26;100.00
80180;BME280;69505;52.134;5.438;2023-12-07T00:46:26;102209.81;;;-2.25;100.00
80180;BME280;69505;52.134;5.438;2023-12-07T00:48:53;102215.88;;;-2.21;100.00
80180;BME280;69505;52.134;5.438;2023-12-07T00:51:20;102226.28;;;-2.23;100.00
80180;BME280;69505;52.134;5.438;2023-12-07T00:53:46;102215.00;;;-2.25;100.00
80180;BME280;69505;52.134;5.438;2023-12-07T00:56:13;102228.91;;;-2.26;100.00
80180;BME280;69505;52.134;5.438;2023-12-07T00:58:39;102221.97;;;-2.36;100.00
80180;BME280;69505;52.134;5.438;2023-12-07T01:01:06;102219.38;;;-2.41;100.00
80180;BME280;69505;52.134;5.438;2023-12-07T01:03:32;102211.56;;;-2.36;100.00
80180;BME280;69505;52.134;5.438;2023-12-07T01:05:59;102216.75;;;-2.39;100.00
80180;BME280;69505;52.134;5.438;2023-12-07T01:08:26;102211.56;;;-2.35;100.00
80180;BME280;69505;52.134;5.438;2023-12-07T01:10:52;102214.16;;;-2.30;100.00
80180;BME280;69505;52.134;5.438;2023-12-07T01:13:19;102213.28;;;-2.32;100.00
80180;BME280;69505;52.134;5.438;2023-12-07T01:15:45;102214.16;;;-2.44;100.00
80180;BME280;69505;52.134;5.438;2023-12-07T01:18:12;102219.38;;;-2.52;100.00
80180;BME280;69505;52.134;5.438;2023-12-07T01:20:38;102220.25;;;-2.56;100.00
80180;BME280;69505;52.134;5.438;2023-12-07T01:23:05;102218.50;;;-2.57;100.00
80180;BME280;69505;52.134;5.438;2023-12-07T01:25:32;102234.97;;;-2.61;100.00
80180;BME280;69505;52.134;5.438;2023-12-07T01:27:58;102233.22;;;-2.60;100.00
80180;BME280;69505;52.134;5.438;2023-12-07T01:30:25;102230.66;;;-2.62;100.00
80180;BME280;69505;52.134;5.438;2023-12-07T01:32:52;102230.66;;;-2.63;100.00
80180;BME280;69505;52.134;5.438;2023-12-07T01:35:19;102234.09;;;-2.57;100.00
80180;BME280;69505;52.134;5.438;2023-12-07T01:37:46;102230.63;;;-2.53;100.00
80180;BME280;69505;52.134;5.438;2023-12-07T01:40:13;102235.84;;;-2.47;100.00
80180;BME280;69505;52.134;5.438;2023-12-07T01:42:50;102228.03;;;-2.42;100.00
80180;BME280;69505;52.134;5.438;2023-12-07T01:45:16;102234.97;;;-2.39;100.00
80180;BME280;69505;52.134;5.438;2023-12-07T01:47:43;102235.88;;;-2.43;100.00
80180;BME280;69505;52.134;5.438;2023-12-07T01:50:11;102237.56;;;-2.39;100.00
80180;BME280;69505;52.134;5.438;2023-12-07T01:52:44;102244.53;;;-2.41;100.00
80180;BME280;69505;52.134;5.438;2023-12-07T01:55:12;102241.91;;;-2.45;100.00
80180;BME280;69505;52.134;5.438;2023-12-07T01:57:40;102239.31;;;-2.51;100.00
80180;BME280;69505;52.134;5.438;2023-12-07T02:00:08;102236.72;;;-2.51;100.00
80180;BME280;69505;52.134;5.438;2023-12-07T02:02:36;102244.50;;;-2.51;100.00
80180;BME280;69505;52.134;5.438;2023-12-07T02:05:04;102243.63;;;-2.48;100.00
80180;BME280;69505;52.134;5.438;2023-12-07T02:07:31;102239.31;;;-2.45;100.00
80180;BME280;69505;52.134;5.438;2023-12-07T02:09:58;102239.31;;;-2.41;100.00
80180;BME280;69505;52.134;5.438;2023-12-07T02:12:24;102239.31;;;-2.41;100.00
80180;BME280;69505;52.134;5.438;2023-12-07T02:14:52;102229.78;;;-2.47;100.00
80180;BME280;69505;52.134;5.438;2023-12-07T02:17:41;102228.94;;;-2.54;100.00
80180;BME280;69505;52.134;5.438;2023-12-07T02:20:26;102234.13;;;-2.54;100.00
80180;BME280;69505;52.134;5.438;2023-12-07T02:22:56;102233.25;;;-2.56;100.00
80180;BME280;69505;52.134;5.438;2023-12-07T02:25:32;102231.50;;;-2.57;100.00
80180;BME280;69505;52.134;5.438;2023-12-07T02:28:01;102232.38;;;-2.58;100.00
80180;BME280;69505;52.134;5.438;2023-12-07T02:30:28;102245.38;;;-2.59;100.00
80180;BME280;69505;52.134;5.438;2023-12-07T02:32:55;102243.66;;;-2.63;100.00
80180;BME280;69505;52.134;5.438;2023-12-07T02:35:22;102234.97;;;-2.67;100.00
80180;BME280;69505;52.134;5.438;2023-12-07T02:37:50;102237.56;;;-2.67;100.00
80180;BME280;69505;52.134;5.438;2023-12-07T02:40:20;102241.06;;;-2.56;100.00
80180;BME280;69505;52.134;5.438;2023-12-07T02:42:48;102244.53;;;-2.54;100.00
80180;BME280;69505;52.134;5.438;2023-12-07T02:45:15;102240.16;;;-2.50;100.00
80180;BME280;69505;52.134;5.438;2023-12-07T02:47:42;102238.44;;;-2.48;100.00
80180;BME280;69505;52.134;5.438;2023-12-07T02:50:12;102232.38;;;-2.42;100.00
80180;BME280;69505;52.134;5.438;2023-12-07T02:52:39;102222.84;;;-2.45;100.00
80180;BME280;69505;52.134;5.438;2023-12-07T02:55:06;102215.91;;;-2.40;100.00
80180;BME280;69505;52.134;5.438;2023-12-07T02:57:33;102222.84;;;-2.34;100.00
80180;BME280;69505;52.134;5.438;2023-12-07T03:00:00;102221.13;;;-2.37;100.00
80180;BME280;69505;52.134;5.438;2023-12-07T03:02:26;102225.41;;;-2.31;100.00
80180;BME280;69505;52.134;5.438;2023-12-07T03:04:53;102221.09;;;-2.31;100.00
80180;BME280;69505;52.134;5.438;2023-12-07T03:07:19;102229.78;;;-2.30;100.00
80180;BME280;69505;52.134;5.438;2023-12-07T03:09:46;102224.56;;;-2.38;100.00
80180;BME280;69505;52.134;5.438;2023-12-07T03:12:13;102229.75;;;-2.38;100.00
80180;BME280;69505;52.134;5.438;2023-12-07T03:14:39;102234.97;;;-2.35;100.00
80180;BME280;69505;52.134;5.438;2023-12-07T03:17:06;102237.59;;;-2.35;100.00
80180;BME280;69505;52.134;5.438;2023-12-07T03:19:32;102230.63;;;-2.34;100.00
80180;BME280;69505;52.134;5.438;2023-12-07T03:21:59;102241.91;;;-2.32;100.00
80180;BME280;69505;52.134;5.438;2023-12-07T03:24:26;102239.31;;;-2.38;100.00
80180;BME280;69505;52.134;5.438;2023-12-07T03:26:52;102241.03;;;-2.40;100.00
80180;BME280;69505;52.134;5.438;2023-12-07T03:29:19;102246.25;;;-2.40;100.00
80180;BME280;69505;52.134;5.438;2023-12-07T03:31:45;102247.13;;;-2.43;100.00
80180;BME280;69505;52.134;5.438;2023-12-07T03:34:12;102236.72;;;-2.46;100.00
80180;BME280;69505;52.134;5.438;2023-12-07T03:36:45;102247.13;;;-2.49;100.00
80180;BME280;69505;52.134;5.438;2023-12-07T03:39:16;102244.50;;;-2.51;100.00
80180;BME280;69505;52.134;5.438;2023-12-07T03:41:49;102243.66;;;-2.50;100.00
80180;BME280;69505;52.134;5.438;2023-12-07T03:44:15;102245.38;;;-2.41;100.00
80180;BME280;69505;52.134;5.438;2023-12-07T03:46:42;102239.31;;;-2.45;100.00
80180;BME280;69505;52.134;5.438;2023-12-07T03:49:08;102245.41;;;-2.52;100.00
80180;BME280;69505;52.134;5.438;2023-12-07T03:51:35;102247.97;;;-2.61;100.00
80180;BME280;69505;52.134;5.438;2023-12-07T03:54:03;102248.84;;;-2.60;100.00
80180;BME280;69505;52.134;5.438;2023-12-07T03:56:30;102252.31;;;-2.58;100.00
80180;BME280;69505;52.134;5.438;2023-12-07T03:58:57;102252.31;;;-2.60;100.00
80180;BME280;69505;52.134;5.438;2023-12-07T04:01:25;102244.50;;;-2.58;100.00
80180;BME280;69505;52.134;5.438;2023-12-07T04:03:53;102243.66;;;-2.56;100.00
80180;BME280;69505;52.134;5.438;2023-12-07T04:06:21;102252.31;;;-2.52;100.00
80180;BME280;69505;52.134;5.438;2023-12-07T04:08:48;102241.03;;;-2.48;100.00
80180;BME280;69505;52.134;5.438;2023-12-07T04:11:15;102245.38;;;-2.44;100.00
80180;BME280;69505;52.134;5.438;2023-12-07T04:13:42;102251.44;;;-2.42;100.00
80180;BME280;69505;52.134;5.438;2023-12-07T04:16:10;102241.91;;;-2.49;100.00
80180;BME280;69505;52.134;5.438;2023-12-07T04:18:36;102248.84;;;-2.51;100.00
80180;BME280;69505;52.134;5.438;2023-12-07T04:21:04;102259.28;;;-2.50;100.00
80180;BME280;69505;52.134;5.438;2023-12-07T04:23:32;102237.59;;;-2.49;100.00
80180;BME280;69505;52.134;5.438;2023-12-07T04:25:59;102247.13;;;-2.41;100.00
80180;BME280;69505;52.134;5.438;2023-12-07T04:28:25;102246.25;;;-2.40;100.00
80180;BME280;69505;52.134;5.438;2023-12-07T04:30:52;102249.72;;;-2.45;100.00
80180;BME280;69505;52.134;5.438;2023-12-07T04:33:19;102251.47;;;-2.43;100.00
80180;BME280;69505;52.134;5.438;2023-12-07T04:35:46;102254.06;;;-2.43;100.00
80180;BME280;69505;52.134;5.438;2023-12-07T04:38:13;102248.00;;;-2.47;100.00
80180;BME280;69505;52.134;5.438;2023-12-07T04:40:40;102245.38;;;-2.47;100.00
80180;BME280;69505;52.134;5.438;2023-12-07T04:43:08;102245.38;;;-2.41;100.00
80180;BME280;69505;52.134;5.438;2023-12-07T04:45:35;102242.78;;;-2.36;100.00
80180;BME280;69505;52.134;5.438;2023-12-07T04:48:01;102249.72;;;-2.34;100.00
80180;BME280;69505;52.134;5.438;2023-12-07T04:50:30;102242.75;;;-2.39;100.00
80180;BME280;69505;52.134;5.438;2023-12-07T04:52:56;102252.31;;;-2.38;100.00
80180;BME280;69505;52.134;5.438;2023-12-07T04:55:23;102242.78;;;-2.46;100.00
80180;BME280;69505;52.134;5.438;2023-12-07T04:57:50;102239.31;;;-2.43;100.00
80180;BME280;69505;52.134;5.438;2023-12-07T05:00:17;102234.09;;;-2.40;100.00
80180;BME280;69505;52.134;5.438;2023-12-07T05:02:44;102239.31;;;-2.38;100.00
80180;BME280;69505;52.134;5.438;2023-12-07T05:05:10;102235.84;;;-2.34;100.00
80180;BME280;69505;52.134;5.438;2023-12-07T05:07:38;102241.91;;;-2.34;100.00
80180;BME280;69505;52.134;5.438;2023-12-07T05:10:05;102234.97;;;-2.30;100.00
80180;BME280;69505;52.134;5.438;2023-12-07T05:12:32;102230.63;;;-2.28;100.00
80180;BME280;69505;52.134;5.438;2023-12-07T05:14:59;102233.22;;;-2.30;100.00
80180;BME280;69505;52.134;5.438;2023-12-07T05:17:26;102222.81;;;-2.31;100.00
80180;BME280;69505;52.134;5.438;2023-12-07T05:19:52;102228.03;;;-2.28;100.00
80180;BME280;69505;52.134;5.438;2023-12-07T05:22:19;102234.09;;;-2.26;100.00
80180;BME280;69505;52.134;5.438;2023-12-07T05:24:45;102228.03;;;-2.30;100.00
80180;BME280;69505;52.134;5.438;2023-12-07T05:27:12;102228.03;;;-2.23;100.00
80180;BME280;69505;52.134;5.438;2023-12-07T05:29:38;102222.81;;;-2.22;100.00
80180;BME280;69505;52.134;5.438;2023-12-07T05:32:05;102225.44;;;-2.20;100.00
80180;BME280;69505;52.134;5.438;2023-12-07T05:34:32;102228.03;;;-2.17;100.00
80180;BME280;69505;52.134;5.438;2023-12-07T05:37:00;102231.47;;;-2.15;100.00
80180;BME280;69505;52.134;5.438;2023-12-07T05:39:26;102221.09;;;-2.14;100.00
80180;BME280;69505;52.134;5.438;2023-12-07T05:41:53;102228.00;;;-2.13;100.00
80180;BME280;69505;52.134;5.438;2023-12-07T05:44:19;102225.41;;;-2.11;100.00
80180;BME280;69505;52.134;5.438;2023-12-07T05:46:49;102218.47;;;-2.11;100.00
80180;BME280;69505;52.134;5.438;2023-12-07T05:49:16;102219.31;;;-2.04;100.00
80180;BME280;69505;52.134;5.438;2023-12-07T05:51:43;102230.59;;;-2.00;100.00
80180;BME280;69505;52.134;5.438;2023-12-07T05:54:09;102214.97;;;-1.94;100.00
80180;BME280;69505;52.134;5.438;2023-12-07T05:56:36;102220.16;;;-1.88;100.00
80180;BME280;69505;52.134;5.438;2023-12-07T05:59:02;102221.88;;;-1.84;100.00
80180;BME280;69505;52.134;5.438;2023-12-07T06:01:29;102223.59;;;-1.80;100.00
80180;BME280;69505;52.134;5.438;2023-12-07T06:03:56;102222.72;;;-1.77;100.00
80180;BME280;69505;52.134;5.438;2023-12-07T06:06:23;102212.28;;;-1.74;100.00
80180;BME280;69505;52.134;5.438;2023-12-07T06:08:50;102207.06;;;-1.71;100.00
80180;BME280;69505;52.134;5.438;2023-12-07T06:11:17;102219.22;;;-1.70;100.00
80180;BME280;69505;52.134;5.438;2023-12-07T06:13:43;102223.56;;;-1.68;100.00
80180;BME280;69505;52.134;5.438;2023-12-07T06:16:13;102224.44;;;-1.66;100.00
80180;BME280;69505;52.134;5.438;2023-12-07T06:18:41;102237.41;;;-1.63;100.00
80180;BME280;69505;52.134;5.438;2023-12-07T06:21:08;102238.28;;;-1.62;100.00
80180;BME280;69505;52.134;5.438;2023-12-07T06:23:34;102238.28;;;-1.57;100.00
80180;BME280;69505;52.134;5.438;2023-12-07T06:26:02;102229.59;;;-1.55;100.00
80180;BME280;69505;52.134;5.438;2023-12-07T06:28:28;102233.91;;;-1.52;100.00
80180;BME280;69505;52.134;5.438;2023-12-07T06:30:55;102241.72;;;-1.51;100.00
80180;BME280;69505;52.134;5.438;2023-12-07T06:33:23;102246.91;;;-1.48;100.00
80180;BME280;69505;52.134;5.438;2023-12-07T06:35:53;102241.72;;;-1.45;100.00
80180;BME280;69505;52.134;5.438;2023-12-07T06:38:20;102244.28;;;-1.43;100.00
80180;BME280;69505;52.134;5.438;2023-12-07T06:40:51;102239.06;;;-1.43;100.00
80180;BME280;69505;52.134;5.438;2023-12-07T06:43:18;102245.16;;;-1.39;100.00
80180;BME280;69505;52.134;5.438;2023-12-07T06:45:44;102246.00;;;-1.39;100.00
80180;BME280;69505;52.134;5.438;2023-12-07T06:48:11;102247.75;;;-1.36;100.00
80180;BME280;69505;52.134;5.438;2023-12-07T06:50:38;102231.25;;;-1.40;100.00
80180;BME280;69505;52.134;5.438;2023-12-07T06:53:05;102239.03;;;-1.34;100.00
80180;BME280;69505;52.134;5.438;2023-12-07T06:55:31;102242.50;;;-1.33;100.00
80180;BME280;69505;52.134;5.438;2023-12-07T06:57:59;102247.72;;;-1.32;100.00
80180;BME280;69505;52.134;5.438;2023-12-07T07:00:26;102250.31;;;-1.30;100.00
80180;BME280;69505;52.134;5.438;2023-12-07T07:02:53;102242.50;;;-1.32;100.00
80180;BME280;69505;52.134;5.438;2023-12-07T07:05:19;102246.84;;;-1.31;100.00
80180;BME280;69505;52.134;5.438;2023-12-07T07:07:46;102240.78;;;-1.30;100.00
80180;BME280;69505;52.134;5.438;2023-12-07T07:10:13;102230.34;;;-1.30;100.00
80180;BME280;69505;52.134;5.438;2023-12-07T07:12:39;102230.31;;;-1.28;100.00
80180;BME280;69505;52.134;5.438;2023-12-07T07:15:07;102233.78;;;-1.25;100.00
80180;BME280;69505;52.134;5.438;2023-12-07T07:17:35;102232.91;;;-1.24;100.00
80180;BME280;69505;52.134;5.438;2023-12-07T07:20:01;102236.38;;;-1.23;100.00
80180;BME280;69505;52.134;5.438;2023-12-07T07:22:28;102243.31;;;-1.22;100.00
80180;BME280;69505;52.134;5.438;2023-12-07T07:24:55;102245.91;;;-1.20;100.00
80180;BME280;69505;52.134;5.438;2023-12-07T07:27:21;102239.84;;;-1.21;100.00
80180;BME280;69505;52.134;5.438;2023-12-07T07:29:48;102245.06;;;-1.21;100.00
80180;BME280;69505;52.134;5.438;2023-12-07T07:32:15;102244.16;;;-1.20;100.00
80180;BME280;69505;52.134;5.438;2023-12-07T07:34:42;102252.03;;;-1.21;100.00
80180;BME280;69505;52.134;5.438;2023-12-07T07:37:09;102254.63;;;-1.25;100.00
80180;BME280;69505;52.134;5.438;2023-12-07T07:39:36;102252.88;;;-1.23;100.00
80180;BME280;69505;52.134;5.438;2023-12-07T07:42:02;102249.41;;;-1.26;100.00
80180;BME280;69505;52.134;5.438;2023-12-07T07:44:29;102256.38;;;-1.24;100.00
80180;BME280;69505;52.134;5.438;2023-12-07T07:46:56;102256.38;;;-1.24;100.00
80180;BME280;69505;52.134;5.438;2023-12-07T07:49:23;102250.28;;;-1.24;100.00
80180;BME280;69505;52.134;5.438;2023-12-07T07:51:50;102247.69;;;-1.29;100.00
80180;BME280;69505;52.134;5.438;2023-12-07T07:54:17;102250.31;;;-1.26;100.00
80180;BME280;69505;52.134;5.438;2023-12-07T07:56:44;102251.16;;;-1.27;100.00
80180;BME280;69505;52.134;5.438;2023-12-07T07:59:10;102254.63;;;-1.25;100.00
80180;BME280;69505;52.134;5.438;2023-12-07T08:01:37;102267.66;;;-1.21;100.00
80180;BME280;69505;52.134;5.438;2023-12-07T08:04:04;102258.97;;;-1.24;100.00
80180;BME280;69505;52.134;5.438;2023-12-07T08:06:31;102253.75;;;-1.22;100.00
80180;BME280;69505;52.134;5.438;2023-12-07T08:09:02;102260.66;;;-1.18;100.00
80180;BME280;69505;52.134;5.438;2023-12-07T08:11:29;102252.00;;;-1.18;100.00
80180;BME280;69505;52.134;5.438;2023-12-07T08:13:56;102244.16;;;-1.20;100.00
80180;BME280;69505;52.134;5.438;2023-12-07T08:16:22;102247.63;;;-1.13;100.00
80180;BME280;69505;52.134;5.438;2023-12-07T08:18:50;102252.00;;;-1.17;100.00
80180;BME280;69505;52.134;5.438;2023-12-07T08:21:21;102246.78;;;-1.18;100.00
80180;BME280;69505;52.134;5.438;2023-12-07T08:23:53;102255.50;;;-1.23;100.00
80180;BME280;69505;52.134;5.438;2023-12-07T08:26:20;102256.34;;;-1.19;100.00
80180;BME280;69505;52.134;5.438;2023-12-07T08:28:47;102251.13;;;-1.17;100.00
80180;BME280;69505;52.134;5.438;2023-12-07T08:31:14;102256.31;;;-1.14;100.00
80180;BME280;69505;52.134;5.438;2023-12-07T08:33:40;102251.09;;;-1.11;100.00
80180;BME280;69505;52.134;5.438;2023-12-07T08:36:07;102252.84;;;-1.13;100.00
80180;BME280;69505;52.134;5.438;2023-12-07T08:38:34;102242.41;;;-1.10;100.00
80180;BME280;69505;52.134;5.438;2023-12-07T08:41:01;102246.72;;;-1.08;100.00
80180;BME280;69505;52.134;5.438;2023-12-07T08:43:28;102248.47;;;-1.07;100.00
80180;BME280;69505;52.134;5.438;2023-12-07T08:45:56;102244.97;;;-1.06;100.00
80180;BME280;69505;52.134;5.438;2023-12-07T08:48:27;102256.25;;;-1.02;100.00
80180;BME280;69505;52.134;5.438;2023-12-07T08:50:54;102251.91;;;-1.00;100.00
80180;BME280;69505;52.134;5.438;2023-12-07T08:53:20;102245.78;;;-0.99;100.00
80180;BME280;69505;52.134;5.438;2023-12-07T08:55:47;102249.25;;;-0.94;100.00
80180;BME280;69505;52.134;5.438;2023-12-07T08:58:13;102244.91;;;-0.93;100.00
80180;BME280;69505;52.134;5.438;2023-12-07T09:00:40;102246.59;;;-0.88;100.00
80180;BME280;69505;52.134;5.438;2023-12-07T09:03:07;102243.97;;;-0.86;100.00
80180;BME280;69505;52.134;5.438;2023-12-07T09:05:33;102245.72;;;-0.84;100.00
80180;BME280;69505;52.134;5.438;2023-12-07T09:08:00;102243.97;;;-0.85;100.00
80180;BME280;69505;52.134;5.438;2023-12-07T09:10:27;102249.19;;;-0.82;100.00
80180;BME280;69505;52.134;5.438;2023-12-07T09:12:54;102239.59;;;-0.79;100.00
80180;BME280;69505;52.134;5.438;2023-12-07T09:15:21;102236.97;;;-0.78;100.00
80180;BME280;69505;52.134;5.438;2023-12-07T09:17:48;102224.81;;;-0.80;100.00
80180;BME280;69505;52.134;5.438;2023-12-07T09:20:17;102229.97;;;-0.71;100.00
80180;BME280;69505;52.134;5.438;2023-12-07T09:22:45;102224.72;;;-0.68;100.00
80180;BME280;69505;52.134;5.438;2023-12-07T09:25:13;102219.50;;;-0.67;100.00
80180;BME280;69505;52.134;5.438;2023-12-07T09:27:40;102226.47;;;-0.67;100.00
80180;BME280;69505;52.134;5.438;2023-12-07T09:30:08;102222.06;;;-0.62;100.00
80180;BME280;69505;52.134;5.438;2023-12-07T09:32:39;102229.00;;;-0.59;100.00
80180;BME280;69505;52.134;5.438;2023-12-07T09:35:08;102216.00;;;-0.64;100.00
80180;BME280;69505;52.134;5.438;2023-12-07T09:37:41;102235.06;;;-0.56;100.00
80180;BME280;69505;52.134;5.438;2023-12-07T09:40:09;102242.91;;;-0.56;100.00
80180;BME280;69505;52.134;5.438;2023-12-07T09:42:40;102237.69;;;-0.57;100.00
80180;BME280;69505;52.134;5.438;2023-12-07T09:45:09;102233.31;;;-0.55;100.00
80180;BME280;69505;52.134;5.438;2023-12-07T09:47:37;102238.59;;;-0.58;100.00
80180;BME280;69505;52.134;5.438;2023-12-07T09:50:06;102240.28;;;-0.56;100.00
80180;BME280;69505;52.134;5.438;2023-12-07T09:52:33;102235.06;;;-0.54;100.00
80180;BME280;69505;52.134;5.438;2023-12-07T09:55:02;102238.53;;;-0.55;100.00
80180;BME280;69505;52.134;5.438;2023-12-07T09:57:30;102240.25;;;-0.50;100.00
80180;BME280;69505;52.134;5.438;2023-12-07T09:59:57;102232.41;;;-0.48;100.00
80180;BME280;69505;52.134;5.438;2023-12-07T10:02:25;102220.22;;;-0.49;100.00
80180;BME280;69505;52.134;5.438;2023-12-07T10:05:13;102224.53;;;-0.44;100.00
80180;BME280;69505;52.134;5.438;2023-12-07T10:07:41;102220.19;;;-0.43;100.00
80180;BME280;69505;52.134;5.438;2023-12-07T10:10:08;102211.44;;;-0.41;100.00
80180;BME280;69505;52.134;5.438;2023-12-07T10:15:21;102199.19;;;-0.29;100.00
80180;BME280;69505;52.134;5.438;2023-12-07T10:17:50;102203.56;;;-0.31;100.00
80180;BME280;69505;52.134;5.438;2023-12-07T10:20:19;102195.69;;;-0.30;100.00
80180;BME280;69505;52.134;5.438;2023-12-07T10:23:09;102182.63;;;-0.25;100.00
80180;BME280;69505;52.134;5.438;2023-12-07T10:25:41;102180.00;;;-0.25;100.00
80180;BME280;69505;52.134;5.438;2023-12-07T10:28:09;102170.34;;;-0.18;100.00
80180;BME280;69505;52.134;5.438;2023-12-07T10:30:41;102172.13;;;-0.21;100.00
80180;BME280;69505;52.134;5.438;2023-12-07T10:33:10;102167.75;;;-0.22;100.00
80180;BME280;69505;52.134;5.438;2023-12-07T10:35:39;102165.16;;;-0.20;100.00
80180;BME280;69505;52.134;5.438;2023-12-07T10:38:07;102159.97;;;-0.23;100.00
80180;BME280;69505;52.134;5.438;2023-12-07T10:40:34;102170.31;;;-0.17;100.00
80180;BME280;69505;52.134;5.438;2023-12-07T10:43:04;102170.38;;;-0.20;100.00
80180;BME280;69505;52.134;5.438;2023-12-07T10:45:32;102170.38;;;-0.20;100.00
80180;BME280;69505;52.134;5.438;2023-12-07T10:48:08;102162.59;;;-0.25;100.00
80180;BME280;69505;52.134;5.438;2023-12-07T10:50:37;102155.56;;;-0.21;100.00
80180;BME280;69505;52.134;5.438;2023-12-07T10:53:12;102156.41;;;-0.19;100.00
80180;BME280;69505;52.134;5.438;2023-12-07T10:55:47;102143.34;;;-0.14;100.00
80180;BME280;69505;52.134;5.438;2023-12-07T10:58:16;102139.84;;;-0.15;100.00
80180;BME280;69505;52.134;5.438;2023-12-07T11:00:44;102139.81;;;-0.12;100.00
80180;BME280;69505;52.134;5.438;2023-12-07T11:03:16;102138.06;;;-0.08;100.00
80180;BME280;69505;52.134;5.438;2023-12-07T11:05:44;102138.00;;;-0.05;100.00
80180;BME280;69505;52.134;5.438;2023-12-07T11:13:33;102131.00;;;-0.02;100.00
80180;BME280;69505;52.134;5.438;2023-12-07T11:16:03;102130.09;;;0.01;100.00
80180;BME280;69505;52.134;5.438;2023-12-07T11:18:30;102130.09;;;-0.01;100.00
80180;BME280;69505;52.134;5.438;2023-12-07T11:20:57;102116.13;;;0.02;100.00
80180;BME280;69505;52.134;5.438;2023-12-07T11:23:27;102110.91;;;0.04;100.00
80180;BME280;69505;52.134;5.438;2023-12-07T11:25:54;102105.69;;;0.02;100.00
80180;BME280;69505;52.134;5.438;2023-12-07T11:28:38;102100.34;;;0.13;100.00
80180;BME280;69505;52.134;5.438;2023-12-07T11:31:07;102102.06;;;0.14;100.00
80180;BME280;69505;52.134;5.438;2023-12-07T11:33:37;102097.66;;;0.19;100.00
80180;BME280;69505;52.134;5.438;2023-12-07T11:36:06;102093.31;;;0.18;100.00
80180;BME280;69505;52.134;5.438;2023-12-07T11:38:33;102085.41;;;0.24;100.00
80180;BME280;69505;52.134;5.438;2023-12-07T11:41:02;102082.78;;;0.24;100.00
80180;BME280;69505;52.134;5.438;2023-12-07T11:45:59;102075.72;;;0.32;100.00
80180;BME280;69505;52.134;5.438;2023-12-07T11:48:25;102068.66;;;0.37;100.00
80180;BME280;69505;52.134;5.438;2023-12-07T11:51:05;102074.72;;;0.39;100.00
80180;BME280;69505;52.134;5.438;2023-12-07T11:53:37;102072.06;;;0.43;100.00
80180;BME280;69505;52.134;5.438;2023-12-07T11:56:06;102076.47;;;0.39;100.00
80180;BME280;69505;52.134;5.438;2023-12-07T11:58:35;102068.56;;;0.44;100.00
80180;BME280;69505;52.134;5.438;2023-12-07T12:01:06;102064.09;;;0.50;100.00
80180;BME280;69505;52.134;5.438;2023-12-07T12:03:34;102063.25;;;0.50;100.00
80180;BME280;69505;52.134;5.438;2023-12-07T12:06:04;102060.72;;;0.44;100.00
80180;BME280;69505;52.134;5.438;2023-12-07T12:08:32;102052.03;;;0.43;100.00
80180;BME280;69505;52.134;5.438;2023-12-07T12:10:59;102051.13;;;0.46;100.00
80180;BME280;69505;52.134;5.438;2023-12-07T12:13:34;102044.09;;;0.51;100.00
80180;BME280;69505;52.134;5.438;2023-12-07T12:16:02;102040.63;;;0.49;100.00
80180;BME280;69505;52.134;5.438;2023-12-07T12:18:32;102033.53;;;0.57;100.00
80180;BME280;69505;52.134;5.438;2023-12-07T12:21:00;102023.88;;;0.60;100.00
80180;BME280;69505;52.134;5.438;2023-12-07T12:23:27;102021.31;;;0.59;100.00
80180;BME280;69505;52.134;5.438;2023-12-07T12:25:56;102030.03;;;0.58;100.00
80180;BME280;69505;52.134;5.438;2023-12-07T12:28:23;102024.84;;;0.55;100.00
80180;BME280;69505;52.134;5.438;2023-12-07T12:30:51;102015.94;;;0.67;100.00
80180;BME280;69505;52.134;5.438;2023-12-07T12:33:19;102019.41;;;0.67;100.00
80180;BME280;69505;52.134;5.438;2023-12-07T12:35:45;102015.00;;;0.69;100.00
80180;BME280;69505;52.134;5.438;2023-12-07T12:38:12;102014.13;;;0.70;100.00
80180;BME280;69505;52.134;5.438;2023-12-07T12:40:53;101994.91;;;0.73;100.00
80180;BME280;69505;52.134;5.438;2023-12-07T12:43:20;101993.06;;;0.79;100.00
80180;BME280;69505;52.134;5.438;2023-12-07T12:45:49;101994.78;;;0.82;100.00
80180;BME280;69505;52.134;5.438;2023-12-07T12:48:32;101976.50;;;0.80;100.00
80180;BME280;69505;52.134;5.438;2023-12-07T12:51:07;101971.16;;;0.87;100.00
80180;BME280;69505;52.134;5.438;2023-12-07T12:53:34;101974.50;;;0.93;100.00
80180;BME280;69505;52.134;5.438;2023-12-07T12:56:02;101960.53;;;0.94;100.00